createdAt,value
2022-09-24T00:00:07.138Z,23.66
2022-09-24T00:01:07.087Z,22.86
2022-09-24T00:02:07.177Z,23.06
2022-09-24T00:03:07.103Z,23.86
2022-09-24T00:04:07.107Z,23.06
2022-09-24T00:05:07.045Z,23.66
2022-09-24T00:06:07.028Z,23.46
2022-09-24T00:07:07.028Z,22.86
2022-09-24T00:08:07.016Z,23.26
2022-09-24T00:09:07.008Z,23.86
2022-09-24T00:10:07.005Z,23.46
2022-09-24T00:11:06.965Z,23.66
2022-09-24T00:12:06.953Z,23.26
2022-09-24T00:13:06.957Z,22.86
2022-09-24T00:14:07.030Z,23.26
2022-09-24T00:15:06.917Z,22.47
2022-09-24T00:16:07.003Z,24.25
2022-09-24T00:17:06.908Z,23.46
2022-09-24T00:18:06.917Z,24.85
2022-09-24T00:19:06.879Z,23.86
2022-09-24T00:20:06.877Z,23.46
2022-09-24T00:21:06.845Z,23.26
2022-09-24T00:22:06.836Z,23.66
2022-09-24T00:23:06.836Z,20.08
2022-09-24T00:24:06.850Z,23.06
2022-09-24T00:25:06.803Z,23.26
2022-09-24T00:26:06.804Z,23.46
2022-09-24T00:27:06.776Z,23.66
2022-09-24T00:28:06.778Z,23.66
2022-09-24T00:29:06.767Z,23.86
2022-09-24T00:30:06.777Z,23.46
2022-09-24T00:31:06.881Z,23.86
2022-09-24T00:32:06.746Z,24.45
2022-09-24T00:33:06.736Z,23.66
2022-09-24T00:34:06.786Z,23.46
2022-09-24T00:35:06.732Z,23.46
2022-09-24T00:36:06.706Z,23.86
2022-09-24T00:37:06.685Z,24.45
2022-09-24T00:38:06.654Z,23.06
2022-09-24T00:39:06.646Z,24.06
2022-09-24T00:40:06.685Z,24.45
2022-09-24T00:41:06.626Z,22.47
2022-09-24T00:42:06.615Z,23.86
2022-09-24T00:43:06.592Z,23.86
2022-09-24T00:44:06.604Z,23.66
2022-09-24T00:45:06.644Z,23.66
2022-09-24T00:46:06.652Z,23.46
2022-09-24T00:47:06.640Z,23.26
2022-09-24T00:48:06.714Z,23.66
2022-09-24T00:49:06.545Z,23.66
2022-09-24T00:50:06.532Z,22.66
2022-09-24T00:51:07.057Z,23.66
2022-09-24T00:52:06.506Z,23.46
2022-09-24T00:53:06.476Z,23.26
2022-09-24T00:54:06.524Z,22.86
2022-09-24T00:55:06.476Z,23.46
2022-09-24T00:56:06.475Z,23.26
2022-09-24T00:57:06.455Z,23.86
2022-09-24T00:58:06.463Z,23.46
2022-09-24T00:59:06.466Z,23.46
2022-09-24T01:00:06.427Z,24.06
2022-09-24T01:01:06.511Z,24.45
2022-09-24T01:02:06.520Z,23.86
2022-09-24T01:03:06.494Z,23.46
2022-09-24T01:04:06.467Z,24.06
2022-09-24T01:05:06.355Z,23.46
2022-09-24T01:06:06.400Z,23.26
2022-09-24T01:07:06.380Z,23.86
2022-09-24T01:08:06.336Z,23.46
2022-09-24T01:09:06.326Z,23.46
2022-09-24T01:10:06.345Z,23.06
2022-09-24T01:11:06.355Z,23.86
2022-09-24T01:12:06.358Z,23.26
2022-09-24T01:13:06.306Z,22.47
2022-09-24T01:14:06.344Z,23.86
2022-09-24T01:15:06.296Z,23.86
2022-09-24T01:16:06.288Z,23.86
2022-09-24T01:17:06.255Z,23.46
2022-09-24T01:18:06.277Z,22.86
2022-09-24T01:19:06.231Z,22.86
2022-09-24T01:20:06.239Z,23.46
2022-09-24T01:21:06.214Z,23.86
2022-09-24T01:22:06.246Z,23.66
2022-09-24T01:23:06.164Z,22.66
2022-09-24T01:24:06.200Z,23.26
2022-09-24T01:25:06.193Z,21.87
2022-09-24T01:26:06.144Z,24.06
2022-09-24T01:27:06.127Z,24.25
2022-09-24T01:28:06.214Z,23.86
2022-09-24T01:29:06.189Z,23.26
2022-09-24T01:30:06.096Z,23.26
2022-09-24T01:31:06.094Z,23.66
2022-09-24T01:32:06.099Z,23.26
2022-09-24T01:33:06.074Z,23.66
2022-09-24T01:34:06.081Z,24.06
2022-09-24T01:35:06.075Z,23.46
2022-09-24T01:36:06.044Z,23.26
2022-09-24T01:37:06.035Z,23.26
2022-09-24T01:38:06.024Z,24.65
2022-09-24T01:39:06.075Z,24.45
2022-09-24T01:40:06.050Z,23.06
2022-09-24T01:41:05.974Z,24.25
2022-09-24T01:42:06.022Z,23.46
2022-09-24T01:43:05.944Z,22.86
2022-09-24T01:44:05.963Z,23.66
2022-09-24T01:45:05.965Z,24.06
2022-09-24T01:46:05.970Z,23.26
2022-09-24T01:47:05.912Z,19.09
2022-09-24T01:48:05.926Z,23.06
2022-09-24T01:49:05.957Z,23.06
2022-09-24T01:50:05.958Z,23.86
2022-09-24T01:51:05.895Z,24.06
2022-09-24T01:52:05.867Z,24.06
2022-09-24T01:53:05.855Z,24.45
2022-09-24T01:54:05.849Z,23.06
2022-09-24T01:55:05.875Z,23.66
2022-09-24T01:56:05.836Z,23.66
2022-09-24T01:57:05.815Z,23.46
2022-09-24T01:58:05.878Z,23.46
2022-09-24T01:59:05.854Z,23.26
2022-09-24T02:00:05.806Z,23.26
2022-09-24T02:01:05.818Z,23.06
2022-09-24T02:02:05.822Z,23.06
2022-09-24T02:03:05.761Z,23.66
2022-09-24T02:04:05.841Z,23.86
2022-09-24T02:05:05.732Z,23.46
2022-09-24T02:06:05.724Z,22.86
2022-09-24T02:07:05.704Z,23.46
2022-09-24T02:08:05.701Z,22.27
2022-09-24T02:09:05.684Z,23.46
2022-09-24T02:10:05.694Z,23.06
2022-09-24T02:11:05.653Z,24.06
2022-09-24T02:12:05.941Z,23.66
2022-09-24T02:13:05.673Z,22.47
2022-09-24T02:14:05.666Z,23.46
2022-09-24T02:15:05.605Z,23.06
2022-09-24T02:16:05.663Z,20.28
2022-09-24T02:17:05.593Z,23.06
2022-09-24T02:18:05.599Z,23.26
2022-09-24T02:19:05.548Z,23.46
2022-09-24T02:20:05.543Z,23.46
2022-09-24T02:21:05.552Z,23.86
2022-09-24T02:22:05.548Z,23.06
2022-09-24T02:23:05.552Z,23.66
2022-09-24T02:24:05.546Z,22.47
2022-09-24T02:25:05.530Z,23.66
2022-09-24T02:26:05.507Z,23.66
2022-09-24T02:27:05.492Z,23.26
2022-09-24T02:28:05.522Z,23.86
2022-09-24T02:29:05.473Z,23.26
2022-09-24T02:30:05.443Z,23.46
2022-09-24T02:31:05.519Z,23.66
2022-09-24T02:32:05.459Z,23.66
2022-09-24T02:33:05.515Z,23.06
2022-09-24T02:34:05.457Z,23.06
2022-09-24T02:35:05.362Z,22.86
2022-09-24T02:36:05.404Z,22.47
2022-09-24T02:37:05.387Z,23.86
2022-09-24T02:38:06.325Z,22.86
2022-09-24T02:39:05.352Z,23.46
2022-09-24T02:40:05.441Z,23.26
2022-09-24T02:41:05.333Z,24.06
2022-09-24T02:42:05.304Z,24.25
2022-09-24T02:43:05.298Z,23.86
2022-09-24T02:44:05.392Z,24.06
2022-09-24T02:45:05.282Z,24.06
2022-09-24T02:46:05.337Z,23.66
2022-09-24T02:47:05.312Z,24.25
2022-09-24T02:48:05.266Z,24.06
2022-09-24T02:49:05.223Z,23.06
2022-09-24T02:50:05.220Z,23.26
2022-09-24T02:51:05.213Z,23.26
2022-09-24T02:52:05.206Z,23.66
2022-09-24T02:53:05.163Z,23.46
2022-09-24T02:54:05.226Z,23.86
2022-09-24T02:55:05.163Z,23.46
2022-09-24T02:56:05.154Z,23.46
2022-09-24T02:57:05.145Z,23.46
2022-09-24T02:58:05.135Z,24.25
2022-09-24T02:59:05.166Z,23.26
2022-09-24T03:00:05.133Z,23.26
2022-09-24T03:01:05.102Z,23.46
2022-09-24T03:02:05.183Z,23.66
2022-09-24T03:03:05.141Z,23.66
2022-09-24T03:04:05.137Z,24.45
2022-09-24T03:05:05.146Z,22.66
2022-09-24T03:06:05.042Z,23.66
2022-09-24T03:07:05.082Z,23.86
2022-09-24T03:08:05.031Z,23.06
2022-09-24T03:09:05.041Z,23.46
2022-09-24T03:10:05.053Z,23.46
2022-09-24T03:11:05.121Z,23.06
2022-09-24T03:12:05.035Z,23.86
2022-09-24T03:13:04.985Z,22.27
2022-09-24T03:14:05.028Z,23.46
2022-09-24T03:15:04.985Z,24.25
2022-09-24T03:16:05.011Z,23.66
2022-09-24T03:17:04.936Z,24.06
2022-09-24T03:18:04.920Z,23.86
2022-09-24T03:19:04.926Z,23.46
2022-09-24T03:20:04.909Z,23.06
2022-09-24T03:21:04.912Z,23.26
2022-09-24T03:22:04.873Z,23.06
2022-09-24T03:23:04.921Z,24.65
2022-09-24T03:24:04.976Z,23.66
2022-09-24T03:25:04.902Z,23.46
2022-09-24T03:26:04.852Z,23.86
2022-09-24T03:27:04.841Z,23.86
2022-09-24T03:28:04.821Z,23.86
2022-09-24T03:29:04.865Z,23.86
2022-09-24T03:30:04.814Z,23.86
2022-09-24T03:31:04.842Z,22.86
2022-09-24T03:32:04.812Z,23.86
2022-09-24T03:33:04.722Z,23.86
2022-09-24T03:34:04.807Z,23.86
2022-09-24T03:35:04.701Z,23.66
2022-09-24T03:36:04.741Z,24.06
2022-09-24T03:37:04.743Z,24.45
2022-09-24T03:38:04.698Z,23.86
2022-09-24T03:39:04.680Z,23.66
2022-09-24T03:40:04.697Z,23.06
2022-09-24T03:41:04.692Z,23.26
2022-09-24T03:42:04.709Z,24.06
2022-09-24T03:43:04.671Z,24.25
2022-09-24T03:44:04.640Z,25.05
2022-09-24T03:45:04.621Z,24.06
2022-09-24T03:46:04.675Z,23.86
2022-09-24T03:47:04.623Z,23.86
2022-09-24T03:48:04.598Z,23.46
2022-09-24T03:49:04.683Z,24.25
2022-09-24T03:50:04.593Z,23.46
2022-09-24T03:51:04.599Z,24.65
2022-09-24T03:52:04.529Z,23.86
2022-09-24T03:53:04.530Z,23.66
2022-09-24T03:54:04.524Z,23.46
2022-09-24T03:55:04.511Z,23.46
2022-09-24T03:56:04.530Z,23.66
2022-09-24T03:57:04.519Z,23.66
2022-09-24T03:58:04.501Z,18.89
2022-09-24T03:59:04.524Z,23.66
2022-09-24T04:00:04.499Z,24.25
2022-09-24T04:01:04.450Z,24.25
2022-09-24T04:02:04.524Z,24.06
2022-09-24T04:03:04.658Z,24.25
2022-09-24T04:04:04.410Z,23.66
2022-09-24T04:05:04.451Z,23.86
2022-09-24T04:06:04.463Z,24.45
2022-09-24T04:07:04.390Z,23.06
2022-09-24T04:08:04.403Z,24.06
2022-09-24T04:09:04.370Z,23.46
2022-09-24T04:10:04.422Z,22.86
2022-09-24T04:11:04.343Z,23.66
2022-09-24T04:12:04.385Z,24.25
2022-09-24T04:13:04.324Z,22.86
2022-09-24T04:14:04.313Z,24.65
2022-09-24T04:15:04.300Z,24.06
2022-09-24T04:16:04.344Z,23.66
2022-09-24T04:17:04.282Z,23.66
2022-09-24T04:18:04.321Z,24.06
2022-09-24T04:19:04.324Z,23.66
2022-09-24T04:20:04.253Z,24.25
2022-09-24T04:21:04.239Z,24.25
2022-09-24T04:22:04.215Z,24.25
2022-09-24T04:23:04.210Z,23.86
2022-09-24T04:24:04.201Z,23.66
2022-09-24T04:25:04.232Z,24.06
2022-09-24T04:26:04.200Z,24.06
2022-09-24T04:27:04.184Z,24.25
2022-09-24T04:28:04.189Z,24.06
2022-09-24T04:29:04.159Z,24.45
2022-09-24T04:30:04.150Z,23.86
2022-09-24T04:31:04.186Z,24.06
2022-09-24T04:32:04.150Z,23.06
2022-09-24T04:33:04.109Z,24.65
2022-09-24T04:34:04.100Z,23.86
2022-09-24T04:35:09.801Z,24.06
2022-09-24T04:36:05.084Z,24.65
2022-09-24T04:37:04.070Z,24.06
2022-09-24T04:38:04.057Z,24.25
2022-09-24T04:39:04.032Z,24.25
2022-09-24T04:40:04.001Z,23.66
2022-09-24T04:41:04.062Z,24.25
2022-09-24T04:42:04.012Z,24.06
2022-09-24T04:43:03.999Z,20.87
2022-09-24T04:44:03.981Z,23.86
2022-09-24T04:45:03.939Z,24.25
2022-09-24T04:46:04.022Z,24.25
2022-09-24T04:47:03.961Z,24.06
2022-09-24T04:48:03.933Z,23.86
2022-09-24T04:49:03.931Z,23.86
2022-09-24T04:50:03.909Z,24.45
2022-09-24T04:51:03.939Z,23.46
2022-09-24T04:52:03.901Z,25.25
2022-09-24T04:53:03.849Z,24.65
2022-09-24T04:54:03.829Z,25.65
2022-09-24T04:55:03.979Z,24.65
2022-09-24T04:56:03.859Z,24.06
2022-09-24T04:57:03.802Z,23.66
2022-09-24T04:58:03.800Z,26.24
2022-09-24T04:59:03.839Z,24.06
2022-09-24T05:00:03.782Z,24.06
2022-09-24T05:01:03.784Z,24.45
2022-09-24T05:02:09.214Z,24.65
2022-09-24T05:03:04.913Z,23.86
2022-09-24T05:04:03.759Z,24.25
2022-09-24T05:05:03.728Z,24.25
2022-09-24T05:06:03.729Z,24.65
2022-09-24T05:07:03.732Z,24.06
2022-09-24T05:08:03.718Z,24.06
2022-09-24T05:09:06.186Z,24.45
2022-09-24T05:10:03.679Z,24.45
2022-09-24T05:11:03.729Z,24.45
2022-09-24T05:12:03.691Z,24.25
2022-09-24T05:13:03.679Z,23.66
2022-09-24T05:14:03.738Z,24.45
2022-09-24T05:15:03.680Z,24.25
2022-09-24T05:16:03.786Z,24.85
2022-09-24T05:17:03.617Z,24.45
2022-09-24T05:18:03.598Z,24.85
2022-09-24T05:19:03.637Z,20.68
2022-09-24T05:20:03.601Z,25.65
2022-09-24T05:21:03.619Z,25.05
2022-09-24T05:22:03.589Z,24.06
2022-09-24T05:23:03.548Z,24.45
2022-09-24T05:24:03.578Z,24.65
2022-09-24T05:25:03.517Z,25.25
2022-09-24T05:26:03.506Z,25.65
2022-09-24T05:27:03.480Z,24.85
2022-09-24T05:28:03.529Z,24.85
2022-09-24T05:29:03.500Z,25.25
2022-09-24T05:30:03.492Z,24.85
2022-09-24T05:31:03.519Z,26.44
2022-09-24T05:32:03.510Z,26.04
2022-09-24T05:33:03.449Z,24.45
2022-09-24T05:34:03.459Z,24.25
2022-09-24T05:35:03.447Z,24.06
2022-09-24T05:36:03.433Z,25.25
2022-09-24T05:37:03.415Z,25.25
2022-09-24T05:38:03.379Z,24.85
2022-09-24T05:39:03.472Z,24.25
2022-09-24T05:40:03.366Z,24.65
2022-09-24T05:41:03.372Z,24.45
2022-09-24T05:42:03.359Z,25.05
2022-09-24T05:43:03.385Z,24.45
2022-09-24T05:44:03.328Z,25.05
2022-09-24T05:45:03.355Z,24.25
2022-09-24T05:46:03.401Z,24.85
2022-09-24T05:47:03.297Z,24.65
2022-09-24T05:48:03.358Z,24.85
2022-09-24T05:49:03.269Z,24.45
2022-09-24T05:50:03.287Z,25.45
2022-09-24T05:51:03.285Z,24.45
2022-09-24T05:52:03.217Z,24.65
2022-09-24T05:53:03.211Z,24.85
2022-09-24T05:54:03.263Z,25.05
2022-09-24T05:55:03.298Z,25.05
2022-09-24T05:56:03.199Z,24.25
2022-09-24T05:57:03.204Z,26.84
2022-09-24T05:58:03.188Z,24.65
2022-09-24T05:59:03.180Z,24.65
2022-09-24T06:00:03.141Z,24.65
2022-09-24T06:01:03.172Z,25.05
2022-09-24T06:02:03.171Z,25.45
2022-09-24T06:03:03.227Z,25.05
2022-09-24T06:04:08.418Z,24.45
2022-09-24T06:05:04.157Z,24.45
2022-09-24T06:06:03.077Z,24.85
2022-09-24T06:07:03.078Z,25.25
2022-09-24T06:08:03.077Z,24.45
2022-09-24T06:09:03.028Z,23.46
2022-09-24T06:10:03.048Z,24.25
2022-09-24T06:11:02.997Z,24.45
2022-09-24T06:12:03.071Z,25.05
2022-09-24T06:13:02.990Z,25.05
2022-09-24T06:14:02.984Z,25.05
2022-09-24T06:15:03.000Z,25.25
2022-09-24T06:16:03.146Z,25.05
2022-09-24T06:17:03.550Z,24.85
2022-09-24T06:18:02.941Z,24.25
2022-09-24T06:19:02.952Z,24.85
2022-09-24T06:20:02.902Z,24.06
2022-09-24T06:21:02.945Z,25.45
2022-09-24T06:22:02.926Z,25.05
2022-09-24T06:23:02.943Z,24.85
2022-09-24T06:24:02.926Z,24.65
2022-09-24T06:25:02.870Z,26.44
2022-09-24T06:26:02.887Z,24.65
2022-09-24T06:27:02.878Z,25.05
2022-09-24T06:28:02.856Z,25.05
2022-09-24T06:29:05.139Z,24.85
2022-09-24T06:30:02.816Z,24.85
2022-09-24T06:31:02.879Z,24.85
2022-09-24T06:32:02.819Z,24.45
2022-09-24T06:33:02.819Z,25.84
2022-09-24T06:34:02.795Z,25.25
2022-09-24T06:35:02.766Z,25.05
2022-09-24T06:36:02.746Z,25.05
2022-09-24T06:37:02.874Z,25.25
2022-09-24T06:38:02.826Z,25.45
2022-09-24T06:39:02.723Z,25.84
2022-09-24T06:40:02.722Z,25.45
2022-09-24T06:41:02.746Z,25.05
2022-09-24T06:42:02.699Z,25.05
2022-09-24T06:43:02.687Z,25.45
2022-09-24T06:44:02.667Z,25.25
2022-09-24T06:45:02.679Z,26.04
2022-09-24T06:46:02.661Z,25.45
2022-09-24T06:47:02.754Z,25.25
2022-09-24T06:48:02.606Z,26.04
2022-09-24T06:49:02.592Z,25.25
2022-09-24T06:50:02.611Z,25.25
2022-09-24T06:51:02.579Z,24.85
2022-09-24T06:52:02.654Z,24.45
2022-09-24T06:53:02.576Z,24.65
2022-09-24T06:54:02.606Z,25.25
2022-09-24T06:55:02.555Z,26.04
2022-09-24T06:56:02.546Z,25.05
2022-09-24T06:57:02.555Z,25.45
2022-09-24T06:58:02.516Z,24.85
2022-09-24T06:59:02.636Z,25.25
2022-09-24T07:00:02.495Z,25.45
2022-09-24T07:01:02.600Z,25.45
2022-09-24T07:02:02.545Z,25.25
2022-09-24T07:03:02.506Z,25.65
2022-09-24T07:04:02.569Z,25.05
2022-09-24T07:05:02.477Z,25.84
2022-09-24T07:06:02.427Z,24.85
2022-09-24T07:07:02.434Z,25.05
2022-09-24T07:08:02.425Z,26.44
2022-09-24T07:09:02.551Z,25.65
2022-09-24T07:10:02.395Z,25.45
2022-09-24T07:11:02.397Z,25.25
2022-09-24T07:12:03.315Z,25.05
2022-09-24T07:13:02.386Z,25.45
2022-09-24T07:14:02.349Z,25.25
2022-09-24T07:15:02.367Z,25.25
2022-09-24T07:16:02.422Z,25.05
2022-09-24T07:17:02.324Z,25.45
2022-09-24T07:18:02.327Z,25.65
2022-09-24T07:19:02.285Z,24.85
2022-09-24T07:20:02.278Z,24.65
2022-09-24T07:21:02.296Z,25.25
2022-09-24T07:22:02.260Z,26.04
2022-09-24T07:23:02.255Z,25.25
2022-09-24T07:24:02.225Z,25.45
2022-09-24T07:25:02.235Z,25.65
2022-09-24T07:26:02.257Z,24.06
2022-09-24T07:27:02.198Z,25.45
2022-09-24T07:28:02.233Z,25.45
2022-09-24T07:29:02.234Z,25.45
2022-09-24T07:30:02.186Z,25.05
2022-09-24T07:31:02.216Z,26.24
2022-09-24T07:32:02.145Z,24.65
2022-09-24T07:33:02.156Z,25.84
2022-09-24T07:34:02.183Z,25.25
2022-09-24T07:35:02.173Z,25.84
2022-09-24T07:36:02.117Z,25.45
2022-09-24T07:37:02.168Z,26.44
2022-09-24T07:38:02.146Z,24.45
2022-09-24T07:39:02.134Z,25.84
2022-09-24T07:40:02.088Z,25.25
2022-09-24T07:41:02.101Z,25.45
2022-09-24T07:42:02.046Z,25.84
2022-09-24T07:43:02.237Z,25.25
2022-09-24T07:44:02.245Z,23.86
2022-09-24T07:45:02.039Z,25.45
2022-09-24T07:46:02.145Z,25.05
2022-09-24T07:47:02.004Z,25.84
2022-09-24T07:48:01.980Z,25.65
2022-09-24T07:49:01.945Z,24.85
2022-09-24T07:50:01.969Z,24.65
2022-09-24T07:51:01.991Z,25.65
2022-09-24T07:52:01.930Z,26.04
2022-09-24T07:53:01.974Z,25.25
2022-09-24T07:54:02.021Z,25.25
2022-09-24T07:55:01.898Z,25.84
2022-09-24T07:56:01.910Z,26.24
2022-09-24T07:57:02.040Z,24.65
2022-09-24T07:58:01.899Z,25.45
2022-09-24T07:59:01.867Z,25.25
2022-09-24T08:00:01.854Z,25.84
2022-09-24T08:01:01.877Z,25.84
2022-09-24T08:02:01.905Z,25.65
2022-09-24T08:03:01.798Z,24.85
2022-09-24T08:04:01.909Z,25.25
2022-09-24T08:05:01.832Z,25.65
2022-09-24T08:06:01.800Z,25.65
2022-09-24T08:07:01.782Z,25.45
2022-09-24T08:08:01.749Z,25.65
2022-09-24T08:09:01.756Z,26.04
2022-09-24T08:10:01.753Z,25.25
2022-09-24T08:11:01.723Z,25.45
2022-09-24T08:12:01.729Z,26.04
2022-09-24T08:13:01.757Z,25.05
2022-09-24T08:14:01.770Z,25.45
2022-09-24T08:15:01.729Z,25.45
2022-09-24T08:16:01.757Z,25.45
2022-09-24T08:17:02.138Z,26.24
2022-09-24T08:18:01.650Z,25.45
2022-09-24T08:19:01.673Z,25.84
2022-09-24T08:20:01.620Z,25.65
2022-09-24T08:21:01.588Z,25.45
2022-09-24T08:22:01.592Z,24.25
2022-09-24T08:23:01.589Z,25.05
2022-09-24T08:24:01.715Z,25.65
2022-09-24T08:25:01.539Z,25.65
2022-09-24T08:26:01.545Z,25.25
2022-09-24T08:27:01.568Z,25.25
2022-09-24T08:28:01.568Z,26.04
2022-09-24T08:29:01.544Z,26.04
2022-09-24T08:30:01.543Z,24.85
2022-09-24T08:31:01.535Z,25.84
2022-09-24T08:32:01.493Z,25.45
2022-09-24T08:33:01.477Z,25.25
2022-09-24T08:34:01.547Z,25.65
2022-09-24T08:35:01.470Z,26.04
2022-09-24T08:36:01.469Z,25.45
2022-09-24T08:37:01.561Z,24.85
2022-09-24T08:38:01.459Z,25.65
2022-09-24T08:39:01.511Z,25.25
2022-09-24T08:40:01.438Z,25.45
2022-09-24T08:41:01.420Z,25.65
2022-09-24T08:42:01.369Z,25.45
2022-09-24T08:43:04.264Z,25.65
2022-09-24T08:44:02.496Z,25.45
2022-09-24T08:45:01.369Z,25.65
2022-09-24T08:46:01.437Z,26.04
2022-09-24T08:47:01.433Z,26.24
2022-09-24T08:48:01.341Z,25.65
2022-09-24T08:49:01.280Z,25.25
2022-09-24T08:50:01.341Z,25.65
2022-09-24T08:51:01.290Z,25.25
2022-09-24T08:52:01.288Z,25.05
2022-09-24T08:53:01.289Z,25.84
2022-09-24T08:54:01.328Z,25.65
2022-09-24T08:55:01.253Z,25.65
2022-09-24T08:56:01.253Z,26.04
2022-09-24T08:57:01.298Z,25.45
2022-09-24T08:58:01.239Z,25.25
2022-09-24T08:59:01.223Z,25.45
2022-09-24T09:00:01.179Z,25.84
2022-09-24T09:01:01.189Z,25.25
2022-09-24T09:02:01.531Z,24.85
2022-09-24T09:03:01.334Z,25.84
2022-09-24T09:04:01.225Z,25.45
2022-09-24T09:05:01.112Z,25.84
2022-09-24T09:06:01.204Z,25.84
2022-09-24T09:07:01.171Z,25.65
2022-09-24T09:08:01.107Z,25.45
2022-09-24T09:09:07.246Z,25.84
2022-09-24T09:10:02.082Z,25.65
2022-09-24T09:11:01.084Z,25.65
2022-09-24T09:12:01.061Z,25.84
2022-09-24T09:13:01.093Z,24.65
2022-09-24T09:14:01.038Z,25.65
2022-09-24T09:15:01.001Z,25.45
2022-09-24T09:16:01.103Z,24.85
2022-09-24T09:17:01.016Z,25.84
2022-09-24T09:18:01.024Z,25.05
2022-09-24T09:19:01.069Z,25.45
2022-09-24T09:20:00.960Z,25.84
2022-09-24T09:21:00.971Z,26.64
2022-09-24T09:22:00.951Z,25.65
2022-09-24T09:23:00.911Z,25.25
2022-09-24T09:24:00.933Z,26.24
2022-09-24T09:25:03.985Z,25.65
2022-09-24T09:26:00.924Z,26.04
2022-09-24T09:27:00.956Z,24.45
2022-09-24T09:28:00.881Z,25.05
2022-09-24T09:29:01.092Z,25.45
2022-09-24T09:30:00.904Z,25.05
2022-09-24T09:31:00.951Z,25.65
2022-09-24T09:32:00.850Z,25.45
2022-09-24T09:33:00.882Z,25.05
2022-09-24T09:34:00.851Z,25.05
2022-09-24T09:35:00.855Z,25.84
2022-09-24T09:36:00.822Z,25.25
2022-09-24T09:37:00.874Z,24.65
2022-09-24T09:38:00.820Z,25.05
2022-09-24T09:39:00.825Z,25.05
2022-09-24T09:40:00.786Z,25.25
2022-09-24T09:41:00.785Z,25.45
2022-09-24T09:42:00.757Z,25.25
2022-09-24T09:43:00.770Z,25.65
2022-09-24T09:44:00.728Z,25.84
2022-09-24T09:45:00.741Z,26.04
2022-09-24T09:46:00.732Z,26.04
2022-09-24T09:47:00.848Z,25.65
2022-09-24T09:48:00.672Z,24.85
2022-09-24T09:49:00.672Z,24.65
2022-09-24T09:50:00.673Z,24.25
2022-09-24T09:51:00.661Z,25.84
2022-09-24T09:52:00.665Z,26.24
2022-09-24T09:53:00.661Z,25.45
2022-09-24T09:54:00.690Z,26.04
2022-09-24T09:55:00.985Z,26.04
2022-09-24T09:56:00.591Z,26.64
2022-09-24T09:57:00.542Z,26.04
2022-09-24T09:58:00.581Z,25.25
2022-09-24T09:59:00.558Z,26.24
2022-09-24T10:00:00.531Z,25.65
2022-09-24T10:01:00.534Z,25.25
2022-09-24T10:02:00.599Z,25.84
2022-09-24T10:03:00.644Z,24.65
2022-09-24T10:04:00.529Z,25.84
2022-09-24T10:05:00.502Z,25.84
2022-09-24T10:06:00.513Z,25.25
2022-09-24T10:07:00.504Z,24.65
2022-09-24T10:08:00.525Z,25.65
2022-09-24T10:09:00.457Z,24.85
2022-09-24T10:10:00.442Z,25.65
2022-09-24T10:11:00.394Z,25.65
2022-09-24T10:12:00.394Z,25.05
2022-09-24T10:13:00.435Z,26.04
2022-09-24T10:14:00.373Z,26.24
2022-09-24T10:15:00.392Z,25.84
2022-09-24T10:16:00.412Z,26.44
2022-09-24T10:17:00.393Z,26.44
2022-09-24T10:18:00.332Z,24.25
2022-09-24T10:19:00.353Z,25.84
2022-09-24T10:20:00.338Z,25.25
2022-09-24T10:21:00.336Z,25.65
2022-09-24T10:22:00.329Z,25.65
2022-09-24T10:23:00.323Z,25.45
2022-09-24T10:24:00.315Z,24.85
2022-09-24T10:25:00.333Z,25.65
2022-09-24T10:26:00.272Z,25.65
2022-09-24T10:27:00.227Z,26.24
2022-09-24T10:28:00.309Z,26.64
2022-09-24T10:29:00.237Z,25.65
2022-09-24T10:30:00.281Z,26.04
2022-09-24T10:31:00.285Z,25.05
2022-09-24T10:32:00.221Z,25.65
2022-09-24T10:33:00.426Z,26.44
2022-09-24T10:34:00.523Z,25.65
2022-09-24T10:35:00.133Z,24.45
2022-09-24T10:36:00.463Z,25.25
2022-09-24T10:37:00.163Z,25.65
2022-09-24T10:38:00.101Z,25.65
2022-09-24T10:39:00.145Z,25.25
2022-09-24T10:40:00.128Z,24.85
2022-09-24T10:41:00.182Z,25.65
2022-09-24T10:42:00.090Z,25.65
2022-09-24T10:43:00.133Z,25.84
2022-09-24T10:44:00.074Z,25.84
2022-09-24T10:45:00.045Z,25.45
2022-09-24T10:46:00.052Z,25.65
2022-09-24T10:47:00.182Z,26.04
2022-09-24T10:48:00.063Z,25.45
2022-09-24T10:49:00.046Z,24.25
2022-09-24T10:50:00.036Z,25.25
2022-09-24T10:50:59.997Z,25.45
2022-09-24T10:51:59.977Z,25.05
2022-09-24T10:52:59.955Z,24.85
2022-09-24T10:53:59.975Z,25.25
2022-09-24T10:54:59.933Z,25.05
2022-09-24T10:55:59.934Z,25.84
2022-09-24T10:56:59.995Z,25.25
2022-09-24T10:57:59.926Z,25.65
2022-09-24T10:58:59.916Z,25.45
2022-09-24T10:59:59.905Z,24.65
2022-09-24T11:00:59.954Z,25.25
2022-09-24T11:01:59.988Z,25.65
2022-09-24T11:02:59.986Z,25.84
2022-09-24T11:03:59.846Z,25.25
2022-09-24T11:04:59.842Z,25.05
2022-09-24T11:05:59.838Z,26.24
2022-09-24T11:06:59.825Z,25.25
2022-09-24T11:07:59.790Z,27.24
2022-09-24T11:08:59.799Z,25.45
2022-09-24T11:09:59.785Z,25.45
2022-09-24T11:10:59.775Z,25.45
2022-09-24T11:11:59.756Z,25.84
2022-09-24T11:12:59.748Z,25.25
2022-09-24T11:13:59.777Z,25.45
2022-09-24T11:14:59.752Z,25.65
2022-09-24T11:15:59.842Z,25.45
2022-09-24T11:16:59.867Z,24.25
2022-09-24T11:17:59.685Z,25.05
2022-09-24T11:18:59.687Z,26.04
2022-09-24T11:19:59.665Z,25.45
2022-09-24T11:20:59.709Z,25.45
2022-09-24T11:21:59.654Z,25.05
2022-09-24T11:22:59.635Z,25.84
2022-09-24T11:23:59.656Z,26.04
2022-09-24T11:24:59.645Z,25.65
2022-09-24T11:25:59.607Z,25.25
2022-09-24T11:26:59.665Z,25.84
2022-09-24T11:27:59.600Z,24.06
2022-09-24T11:28:59.590Z,25.45
2022-09-24T11:29:59.566Z,25.25
2022-09-24T11:30:59.623Z,25.45
2022-09-24T11:31:59.625Z,25.84
2022-09-24T11:32:59.538Z,25.65
2022-09-24T11:33:59.517Z,25.25
2022-09-24T11:34:59.529Z,24.65
2022-09-24T11:35:59.506Z,26.64
2022-09-24T11:36:59.617Z,25.45
2022-09-24T11:37:59.468Z,24.65
2022-09-24T11:38:59.479Z,25.65
2022-09-24T11:39:59.500Z,25.84
2022-09-24T11:40:59.515Z,25.65
2022-09-24T11:41:59.410Z,26.44
2022-09-24T11:42:59.418Z,24.06
2022-09-24T11:43:59.419Z,25.25
2022-09-24T11:44:59.493Z,25.65
2022-09-24T11:45:59.396Z,25.45
2022-09-24T11:46:59.578Z,25.45
2022-09-24T11:47:59.370Z,25.05
2022-09-24T11:48:59.359Z,25.65
2022-09-24T11:49:59.406Z,24.85
2022-09-24T11:50:59.479Z,23.86
2022-09-24T11:51:59.316Z,26.04
2022-09-24T11:52:59.309Z,25.25
2022-09-24T11:53:59.308Z,25.05
2022-09-24T11:54:59.356Z,26.24
2022-09-24T11:55:59.287Z,25.25
2022-09-24T11:56:59.260Z,25.45
2022-09-24T11:57:59.348Z,27.63
2022-09-24T11:58:59.292Z,25.05
2022-09-24T11:59:59.339Z,25.25
2022-09-24T12:00:59.251Z,25.25
2022-09-24T12:01:59.286Z,25.45
2022-09-24T12:02:59.304Z,25.45
2022-09-24T12:03:59.188Z,24.85
2022-09-24T12:04:59.193Z,24.85
2022-09-24T12:05:59.151Z,26.04
2022-09-24T12:06:59.158Z,24.45
2022-09-24T12:07:59.158Z,25.84
2022-09-24T12:08:59.141Z,25.45
2022-09-24T12:09:59.152Z,23.86
2022-09-24T12:10:59.129Z,24.85
2022-09-24T12:11:59.108Z,25.25
2022-09-24T12:12:59.118Z,25.25
2022-09-24T12:13:59.097Z,25.65
2022-09-24T12:14:59.090Z,26.04
2022-09-24T12:15:59.194Z,25.65
2022-09-24T12:16:59.099Z,24.25
2022-09-24T12:17:59.048Z,24.25
2022-09-24T12:18:59.050Z,25.65
2022-09-24T12:19:59.069Z,26.04
2022-09-24T12:20:59.060Z,25.05
2022-09-24T12:21:59.030Z,25.25
2022-09-24T12:22:58.993Z,25.84
2022-09-24T12:24:02.702Z,25.45
2022-09-24T12:24:59.593Z,25.25
2022-09-24T12:25:58.928Z,24.65
2022-09-24T12:26:59.063Z,26.24
2022-09-24T12:27:58.937Z,25.65
2022-09-24T12:28:58.936Z,25.45
2022-09-24T12:29:58.905Z,25.05
2022-09-24T12:30:58.918Z,25.84
2022-09-24T12:31:58.880Z,25.45
2022-09-24T12:32:58.849Z,25.45
2022-09-24T12:33:58.870Z,26.04
2022-09-24T12:34:58.824Z,25.45
2022-09-24T12:35:58.829Z,25.65
2022-09-24T12:36:58.812Z,25.25
2022-09-24T12:37:58.810Z,25.25
2022-09-24T12:38:58.780Z,24.06
2022-09-24T12:39:58.812Z,24.85
2022-09-24T12:40:58.875Z,24.45
2022-09-24T12:41:58.800Z,24.65
2022-09-24T12:42:58.780Z,25.25
2022-09-24T12:43:58.806Z,25.25
2022-09-24T12:44:58.750Z,25.84
2022-09-24T12:45:58.730Z,24.65
2022-09-24T12:46:58.883Z,25.45
2022-09-24T12:47:58.720Z,25.05
2022-09-24T12:48:58.674Z,25.45
2022-09-24T12:49:58.665Z,25.45
2022-09-24T12:50:58.681Z,25.45
2022-09-24T12:51:58.671Z,26.04